createdAt,value
2022-12-11T08:06:59.392Z,17.27
2022-12-11T08:09:44.852Z,15.00
2022-12-11T08:12:30.629Z,16.65
2022-12-11T08:15:16.367Z,14.25
2022-12-11T08:18:02.042Z,16.10
2022-12-11T08:20:47.634Z,16.77
2022-12-11T08:23:34.855Z,16.17
2022-12-11T08:26:22.256Z,14.52
2022-12-11T08:29:07.930Z,16.60
2022-12-11T08:31:53.585Z,15.53
2022-12-11T08:34:39.366Z,18.23
2022-12-11T08:37:24.868Z,16.75
2022-12-11T08:40:12.598Z,17.50
2022-12-11T08:42:57.939Z,17.05
2022-12-11T08:45:43.279Z,16.83
2022-12-11T08:48:28.803Z,16.98
2022-12-11T08:51:17.145Z,15.93
2022-12-11T08:54:03.044Z,17.90
2022-12-11T08:56:54.800Z,15.52
2022-12-11T08:59:43.418Z,17.73
2022-12-11T09:02:28.816Z,14.82
2022-12-11T09:05:14.370Z,17.17
2022-12-11T09:08:00.538Z,17.75
2022-12-11T09:10:45.985Z,15.52
2022-12-11T09:13:33.015Z,17.97
2022-12-11T09:16:21.659Z,17.20
2022-12-11T09:19:09.141Z,16.33
2022-12-11T09:21:54.594Z,17.35
2022-12-11T09:24:40.237Z,16.50
2022-12-11T09:27:25.845Z,14.87
2022-12-11T09:30:14.166Z,16.20
2022-12-11T09:33:00.308Z,16.02
2022-12-11T09:35:46.267Z,15.70
2022-12-11T09:38:33.568Z,15.07
2022-12-11T09:41:35.524Z,18.57
2022-12-11T09:44:34.713Z,14.95
2022-12-11T09:47:36.206Z,15.38
2022-12-11T09:50:25.005Z,15.43
2022-12-11T09:53:15.208Z,16.48
2022-12-11T09:56:05.554Z,16.13
2022-12-11T09:59:01.698Z,15.48
2022-12-11T10:01:55.111Z,14.93
2022-12-11T10:04:55.954Z,14.93
2022-12-11T10:07:48.671Z,13.35
2022-12-11T10:10:42.281Z,14.07
2022-12-11T10:13:36.345Z,15.45
2022-12-11T10:16:35.644Z,14.65
2022-12-11T10:19:24.930Z,13.93
2022-12-11T10:22:19.863Z,15.25
2022-12-11T10:25:11.045Z,14.00
2022-12-11T10:28:13.886Z,13.18
2022-12-11T10:31:28.670Z,11.23
2022-12-11T10:34:20.511Z,13.38
2022-12-11T10:37:06.460Z,14.38
2022-12-11T10:39:55.888Z,12.57
2022-12-11T10:42:53.281Z,11.23
2022-12-11T10:45:39.591Z,12.82
2022-12-11T10:48:25.776Z,12.98
2022-12-11T10:51:11.901Z,12.80
2022-12-11T10:54:07.178Z,12.73
2022-12-11T10:56:55.217Z,14.07
2022-12-11T10:59:45.708Z,11.10
2022-12-11T11:02:34.904Z,11.48
2022-12-11T11:05:30.153Z,10.77
2022-12-11T11:08:27.328Z,13.20
2022-12-11T11:11:24.261Z,12.20
2022-12-11T11:14:16.609Z,12.13
2022-12-11T11:17:02.371Z,12.00
2022-12-11T11:19:49.002Z,11.82
2022-12-11T11:22:40.951Z,13.63
2022-12-11T11:25:28.827Z,12.13
2022-12-11T11:28:21.237Z,12.98
2022-12-11T11:31:11.685Z,15.15
2022-12-11T11:34:00.262Z,16.10
2022-12-11T11:36:56.939Z,15.20
2022-12-11T11:39:45.237Z,44.45
2022-12-11T11:42:39.812Z,36.28
2022-12-11T11:45:28.641Z,29.02
2022-12-11T11:48:30.289Z,26.88
2022-12-11T11:51:19.651Z,22.67
2022-12-11T11:54:25.376Z,20.27
2022-12-11T11:57:17.816Z,16.20
2022-12-11T12:00:10.771Z,16.90
2022-12-11T12:02:59.683Z,15.05
2022-12-11T12:05:54.089Z,14.30
2022-12-11T12:08:46.850Z,13.13
2022-12-11T12:11:39.189Z,13.38
2022-12-11T12:14:51.524Z,12.50
2022-12-11T12:17:50.535Z,14.07
2022-12-11T12:20:47.380Z,12.63
2022-12-11T12:23:58.217Z,13.98
2022-12-11T12:26:50.439Z,12.75
2022-12-11T12:29:48.245Z,13.63
2022-12-11T12:32:46.701Z,14.32
2022-12-11T12:35:38.612Z,13.20
2022-12-11T12:38:30.492Z,10.85
2022-12-11T12:41:22.629Z,13.60
2022-12-11T12:44:16.580Z,11.75
2022-12-11T12:47:05.930Z,11.93
2022-12-11T12:49:53.317Z,14.33
2022-12-11T12:52:40.825Z,18.10
2022-12-11T12:55:29.038Z,12.95
2022-12-11T12:58:28.293Z,13.05
2022-12-11T13:01:19.427Z,13.63
2022-12-11T13:04:10.640Z,10.67
2022-12-11T13:07:20.471Z,10.80
2022-12-11T13:10:22.043Z,23.83
2022-12-11T13:13:31.050Z,26.67
2022-12-11T13:16:34.588Z,40.75
2022-12-11T13:19:40.610Z,71.63
2022-12-11T13:22:27.751Z,63.33
2022-12-11T13:25:26.165Z,56.40
2022-12-11T13:28:22.581Z,46.53
2022-12-11T13:31:34.348Z,42.35
2022-12-11T13:34:23.866Z,31.07
2022-12-11T13:37:25.155Z,29.00
2022-12-11T13:40:18.989Z,25.83
2022-12-11T13:43:07.367Z,22.75
2022-12-11T13:45:55.900Z,18.80
2022-12-11T13:48:48.250Z,17.27
2022-12-11T13:51:38.112Z,15.75
2022-12-11T13:54:24.981Z,14.95
2022-12-11T13:57:18.047Z,14.23
2022-12-11T14:00:04.504Z,15.23
2022-12-11T14:02:55.030Z,12.30
2022-12-11T14:05:43.055Z,12.32
2022-12-11T14:08:34.220Z,11.50
2022-12-11T14:11:23.672Z,11.93
2022-12-11T14:14:20.832Z,11.32
2022-12-11T14:17:06.656Z,11.70
2022-12-11T14:19:53.519Z,11.73
2022-12-11T14:22:40.694Z,10.88
2022-12-11T14:25:27.749Z,12.75
2022-12-11T14:28:17.009Z,13.52
2022-12-11T14:31:04.608Z,13.63
2022-12-11T14:33:54.311Z,13.48
2022-12-11T14:36:42.107Z,14.32
2022-12-11T14:39:32.200Z,16.45
2022-12-11T14:42:22.335Z,15.15
2022-12-11T14:45:17.432Z,14.80
2022-12-11T14:48:08.333Z,16.65
2022-12-11T14:50:57.786Z,17.10
2022-12-11T14:53:46.761Z,15.65
2022-12-11T14:56:34.051Z,13.73
2022-12-11T14:59:26.914Z,18.67
2022-12-11T15:02:26.253Z,15.93
2022-12-11T15:05:20.063Z,13.32
2022-12-11T15:08:25.031Z,14.32
2022-12-11T15:11:12.803Z,13.27
2022-12-11T15:14:02.862Z,11.53
2022-12-11T15:16:50.752Z,10.93
2022-12-11T15:19:37.763Z,12.77
2022-12-11T15:22:26.950Z,11.75
2022-12-11T15:25:19.293Z,10.77
2022-12-11T15:28:05.351Z,11.27
2022-12-11T15:30:58.294Z,13.55
2022-12-11T15:33:47.926Z,11.95
2022-12-11T15:36:36.143Z,13.57
2022-12-11T15:39:22.099Z,12.57
2022-12-11T15:42:07.700Z,14.03
2022-12-11T15:44:54.258Z,13.75
2022-12-11T15:47:42.767Z,13.07
2022-12-11T15:50:29.636Z,12.32
2022-12-11T15:53:15.691Z,15.00
2022-12-11T15:56:02.101Z,13.40
2022-12-11T15:58:49.128Z,14.43
2022-12-11T16:01:35.129Z,12.32
2022-12-11T16:04:21.920Z,13.82
2022-12-11T16:07:15.435Z,13.32
2022-12-11T16:10:01.593Z,12.73
2022-12-11T16:12:47.775Z,13.07
2022-12-11T16:15:33.781Z,12.32
2022-12-11T16:18:21.787Z,13.93
2022-12-11T16:21:09.293Z,12.70
2022-12-11T16:23:55.679Z,11.37
2022-12-11T16:26:41.874Z,12.82
2022-12-11T16:29:29.409Z,10.65
2022-12-11T16:32:16.029Z,12.02
2022-12-11T16:35:06.266Z,11.63
2022-12-11T16:37:55.172Z,11.60
2022-12-11T16:40:41.643Z,13.57
2022-12-11T16:43:27.565Z,14.38
2022-12-11T16:46:13.268Z,12.57
2022-12-11T16:48:59.201Z,15.02
2022-12-11T16:51:45.822Z,13.80
2022-12-11T16:54:32.728Z,12.95
2022-12-11T16:57:18.408Z,14.95
2022-12-11T17:00:05.556Z,13.90
2022-12-11T17:02:51.750Z,12.52
2022-12-11T17:05:39.638Z,15.13
2022-12-11T17:08:25.855Z,14.10
2022-12-11T17:11:15.598Z,16.88
2022-12-11T17:14:04.159Z,16.08
2022-12-11T17:16:50.500Z,15.25
2022-12-11T17:19:36.531Z,16.23
2022-12-11T17:22:22.678Z,16.40
2022-12-11T17:25:10.311Z,16.98
2022-12-11T17:27:58.794Z,18.48
2022-12-11T17:30:49.385Z,16.90
2022-12-11T17:33:35.882Z,16.73
2022-12-11T17:36:22.456Z,17.70
2022-12-11T17:39:10.111Z,18.00
2022-12-11T17:41:56.772Z,18.00
2022-12-11T17:44:45.746Z,17.50
2022-12-11T17:47:32.579Z,15.70
2022-12-11T17:50:19.020Z,15.32
2022-12-11T17:53:06.593Z,16.52
2022-12-11T17:55:52.973Z,16.60
2022-12-11T17:58:39.185Z,17.08
2022-12-11T18:01:27.303Z,20.80
2022-12-11T18:04:14.163Z,14.93
2022-12-11T18:07:00.964Z,16.55
2022-12-11T18:09:47.353Z,13.90
2022-12-11T18:12:34.627Z,16.80
2022-12-11T18:15:21.164Z,15.83
2022-12-11T18:18:09.383Z,16.73
2022-12-11T18:20:55.372Z,16.15
2022-12-11T18:23:43.019Z,16.92
2022-12-11T18:26:30.777Z,14.20
2022-12-11T18:29:17.924Z,15.63
2022-12-11T18:32:05.277Z,15.88
2022-12-11T18:34:54.642Z,15.20
2022-12-11T18:37:41.764Z,16.25
2022-12-11T18:40:29.217Z,16.90
2022-12-11T18:43:16.209Z,17.37
2022-12-11T18:46:06.714Z,15.32
2022-12-11T18:48:52.900Z,15.77
2022-12-11T18:51:41.714Z,15.52
2022-12-11T18:54:28.423Z,15.27
2022-12-11T18:57:14.957Z,14.43
2022-12-11T19:00:07.752Z,15.13
2022-12-11T19:02:54.460Z,17.30
2022-12-11T19:05:46.473Z,14.27
2022-12-11T19:08:35.192Z,14.02
2022-12-11T19:11:23.259Z,16.43
2022-12-11T19:14:11.466Z,14.70
2022-12-11T19:16:58.056Z,14.95
2022-12-11T19:19:48.073Z,13.13
2022-12-11T19:22:35.837Z,15.50
2022-12-11T19:25:23.988Z,15.10
2022-12-11T19:28:10.290Z,15.98
2022-12-11T19:30:56.937Z,14.30
2022-12-11T19:33:44.015Z,13.73
2022-12-11T19:36:31.638Z,12.88
2022-12-11T19:39:20.518Z,14.67
2022-12-11T19:42:09.169Z,12.90
2022-12-11T19:44:56.147Z,14.13
2022-12-11T19:47:43.117Z,14.02
2022-12-11T19:50:30.381Z,13.13
2022-12-11T19:53:16.486Z,14.43
2022-12-11T19:56:03.691Z,12.35
2022-12-11T19:58:51.912Z,13.25
2022-12-11T20:01:38.959Z,14.00
2022-12-11T20:04:26.608Z,12.18
2022-12-11T20:07:12.830Z,12.43
2022-12-11T20:10:00.913Z,12.38
2022-12-11T20:12:47.644Z,13.60
2022-12-11T20:15:40.949Z,11.82
2022-12-11T20:18:28.138Z,13.00
2022-12-11T20:21:17.010Z,13.37
2022-12-11T20:24:06.788Z,11.98
2022-12-11T20:26:54.715Z,12.07
2022-12-11T20:29:40.915Z,12.07
2022-12-11T20:32:29.039Z,14.43
2022-12-11T20:35:17.667Z,12.63
2022-12-11T20:38:06.281Z,11.18
2022-12-11T20:40:52.783Z,12.15
2022-12-11T20:43:40.403Z,13.07
2022-12-11T20:46:28.273Z,12.48
2022-12-11T20:49:17.031Z,11.20
2022-12-11T20:52:03.571Z,12.75
2022-12-11T20:54:49.735Z,13.20
2022-12-11T20:57:38.250Z,14.57
2022-12-11T21:00:28.289Z,12.98
2022-12-11T21:03:14.542Z,13.70
2022-12-11T21:06:03.241Z,14.95
2022-12-11T21:08:49.797Z,13.45
2022-12-11T21:11:35.922Z,13.50
2022-12-11T21:14:22.726Z,13.57
2022-12-11T21:17:08.457Z,12.77
2022-12-11T21:19:53.998Z,12.98
2022-12-11T21:22:41.031Z,14.60
2022-12-11T21:25:27.044Z,14.10
2022-12-11T21:28:13.773Z,14.40
2022-12-11T21:31:01.251Z,15.90
2022-12-11T21:33:48.205Z,13.50
2022-12-11T21:36:34.092Z,14.95
2022-12-11T21:39:21.467Z,14.00
2022-12-11T21:42:07.305Z,16.33
2022-12-11T21:47:58.220Z,16.25
2022-12-11T21:50:43.574Z,15.25
2022-12-11T21:53:28.877Z,17.67
2022-12-11T21:56:18.188Z,16.23
2022-12-11T21:59:03.914Z,14.73
2022-12-11T22:01:49.442Z,15.25
2022-12-11T22:04:34.753Z,16.65
2022-12-11T22:07:19.979Z,15.00
2022-12-11T22:10:06.010Z,14.98
2022-12-11T22:12:53.110Z,16.37
2022-12-11T22:15:38.835Z,14.45
2022-12-11T22:18:27.256Z,16.55
2022-12-11T22:21:12.530Z,15.73
2022-12-11T22:23:57.818Z,15.45
2022-12-11T22:26:43.143Z,16.73
2022-12-11T22:29:29.707Z,15.23
2022-12-11T22:32:15.106Z,15.73
2022-12-11T22:35:00.526Z,15.40
2022-12-11T22:37:45.915Z,16.52
2022-12-11T22:40:31.369Z,15.97
2022-12-11T22:43:16.655Z,13.43
2022-12-11T22:46:03.415Z,16.05
2022-12-11T22:48:48.986Z,16.13
2022-12-11T22:51:34.381Z,15.55
2022-12-11T22:54:19.710Z,16.00
2022-12-11T22:57:04.991Z,14.52
2022-12-11T22:59:50.308Z,15.77
2022-12-11T23:02:37.358Z,16.52
2022-12-11T23:05:22.956Z,18.17
2022-12-11T23:08:09.447Z,16.67
2022-12-11T23:10:54.700Z,14.63
2022-12-11T23:13:40.097Z,15.57
2022-12-11T23:16:27.188Z,15.13
2022-12-11T23:19:14.505Z,13.88
2022-12-11T23:22:00.178Z,15.50
2022-12-11T23:24:45.761Z,16.40
2022-12-11T23:27:30.973Z,16.58
2022-12-11T23:30:16.276Z,17.67
2022-12-11T23:33:01.551Z,16.83
2022-12-11T23:35:48.369Z,16.73
2022-12-11T23:38:34.151Z,18.40
2022-12-11T23:41:19.618Z,18.77
2022-12-11T23:44:05.434Z,18.90
2022-12-11T23:46:50.945Z,20.25
2022-12-11T23:49:36.267Z,17.43
2022-12-11T23:52:23.277Z,19.88
2022-12-11T23:55:10.602Z,18.02
2022-12-11T23:57:56.284Z,17.98
